Pagina principale
METAR-TAF:

METAR-TAF

Aeroporti :

Fourchambault

Nevers, Francia

latitudine: 47-00N, longitudine: 003-06E, altezza: 180 m

Osservazione

Il bollettino è stato emesso 1 ora e 2 minuti fa, alle 18:00 UTC
Vento 13 kt da sud/sud-ovest
Temperature 17°C
Umidità 48%
Pressione 1016 hPa
Visibilità 10 km o più
nessuna nube inferiore a 1500 m e nessun cumulonembo

METAR: LFQG 161800Z AUTO 21013KT CAVOK 17/06 Q1016

Ora: 20:02 (19:02 UTC)


TAF: mancante

Osservazioni e previsioni meteorologiche di più di 4000 aeroporti (messaggi METAR e TAF).

Le stazioni disponibili sono rappresentate dai dischi gialli e rossi sulla carta.

Puntare il mouse per vedere il nome della stazione.

Clicca sopra per visualizzare le osservazioni e previsioni meteorologiche.

Per cambiare la mappa : fare clic sui pulsanti verdi con una croce nera per ingrandire, il pulsante verde con un trattino per diminuire, o sulla freccia verde per le mappe adiacenti.


METAR-TAF: